• Join FlightAware (Why Join?)
  • Login
  • US Flag 
09:36AM EDT


 

Airport Tracker/Info


-or-


 

Live Flight TrackerFlight Track Log ✈ VH-TUY ✈ 22-Jun-2013 ✈ YDBY / DRB - YPKU / KNX

Flight Track Log - Related Links

Times and Time Zones

All times are in EDT time to prevent confusion due to time zone crossing. See the VH-TUY flight status page for this flight to view local times or setup timezone preferences in your user account.

Time Position Orientation Groundspeed Altitude Reporting Facility
EDT Latitude Longitude Course Direction KTS MPH feet Rate Location/Type
11:35AM -17.2982 123.8991 360° North  Level Aus ATC (Calculated)
11:36AM -17.2982 123.8991 72° East  Level Aus ATC (Calculated)
11:38AM -17.2831 123.9492 72° East  Level FlightAware Approximate
11:39AM -17.2714 123.9876 72° East  Level FlightAware Approximate
11:39AM -17.2524 124.0505 180° South  Level Aus ATC (Calculated)
11:39AM -17.2524 124.0505 252° West  Level Aus ATC (Calculated)
11:40AM -17.2598 124.0261 72° East  Level FlightAware Approximate
11:41AM -17.2372 124.1005 72° East  Level FlightAware Approximate
11:42AM -17.2256 124.1390 72° East  Level FlightAware Approximate
11:43AM -17.2139 124.1775 72° East  Level FlightAware Approximate
11:44AM -17.2022 124.2159 72° East  Level FlightAware Approximate
11:45AM -17.1905 124.2544 72° East  Level FlightAware Approximate
11:46AM -17.1788 124.2928 72° East  Level FlightAware Approximate
11:47AM -17.1671 124.3313 72° East  Level FlightAware Approximate
11:47AM -17.1633 124.3436 360° North  Level Aus ATC (Calculated)
11:47AM -17.1633 124.3436 72° East  Level Aus ATC (Calculated)
11:49AM -17.1418 124.4140 72° East  Level FlightAware Approximate
11:50AM -17.1295 124.4545 72° East  Level FlightAware Approximate
11:50AM -17.1214 124.4809 72° East  Level Aus ATC (Calculated)
11:51AM -17.1171 124.4951 72° East  Level FlightAware Approximate
11:52AM -17.1047 124.5357 72° East  Level FlightAware Approximate
11:53AM -17.0923 124.5762 72° East  Level FlightAware Approximate
11:54AM -17.0798 124.6168 72° East  Level FlightAware Approximate
11:55AM -17.0674 124.6574 72° East  Level FlightAware Approximate
11:56AM -17.0550 124.6979 72° East  Level FlightAware Approximate
11:57AM -17.0425 124.7385 72° East  Level FlightAware Approximate
11:58AM -17.0301 124.7790 72° East  Level FlightAware Approximate
11:59AM -17.0176 124.8195 72° East  Level FlightAware Approximate
12:00PM -17.0051 124.8601 72° East  Level FlightAware Approximate
12:01PM -16.9926 124.9006 72° East  Level FlightAware Approximate
12:02PM -16.9802 124.9411 72° East  Level FlightAware Approximate
12:03PM -16.9677 124.9816 72° East  Level FlightAware Approximate
12:04PM -16.9552 125.0221 72° East  Level FlightAware Approximate
12:05PM -16.9427 125.0626 72° East  Level FlightAware Approximate
12:06PM -16.9301 125.1031 72° East  Level FlightAware Approximate
12:07PM -16.9176 125.1436 72° East  Level FlightAware Approximate
12:08PM -16.9051 125.1841 72° East  Level FlightAware Approximate
12:09PM -16.8925 125.2246 72° East  Level FlightAware Approximate
12:10PM -16.8800 125.2651 72° East  Level FlightAware Approximate
12:11PM -16.8674 125.3055 72° East  Level FlightAware Approximate
12:12PM -16.8549 125.3460 72° East  Level FlightAware Approximate
12:13PM -16.8423 125.3865 72° East  Level FlightAware Approximate
12:14PM -16.8297 125.4269 72° East  Level FlightAware Approximate
12:14PM -16.7936 125.5430 252° West  Level Aus ATC (Calculated)
12:15PM -16.8171 125.4674 72° East  Level FlightAware Approximate
12:16PM -16.7774 125.5948 72° East  Level FlightAware Approximate
12:17PM -16.7648 125.6353 72° East  Level FlightAware Approximate
12:18PM -16.7521 125.6757 72° East  Level FlightAware Approximate
12:19PM -16.7395 125.7161 72° East  Level FlightAware Approximate
12:20PM -16.7269 125.7565 72° East  Level FlightAware Approximate
12:21PM -16.7142 125.7969 72° East  Level FlightAware Approximate
12:22PM -16.7015 125.8373 72° East  Level FlightAware Approximate
12:23PM -16.6889 125.8777 72° East  Level FlightAware Approximate
12:24PM -16.6762 125.9181 72° East  Level FlightAware Approximate
12:25PM -16.6635 125.9585 72° East  Level FlightAware Approximate
12:26PM -16.6508 125.9989 72° East  Level FlightAware Approximate
12:27PM -16.6381 126.0393 72° East  Level FlightAware Approximate
12:28PM -16.6254 126.0796 72° East  Level FlightAware Approximate
12:29PM -16.6127 126.1200 72° East  Level FlightAware Approximate
12:30PM -16.6000 126.1603 72° East  Level FlightAware Approximate
12:31PM -16.5872 126.2007 72° East  Level FlightAware Approximate
12:31PM -16.5598 126.2876 252° West  Level Aus ATC (Calculated)
12:32PM -16.5745 126.2410 72° East  Level FlightAware Approximate
12:33PM -16.5466 126.3292 72° East  Level FlightAware Approximate
12:34PM -16.5339 126.3696 72° East  Level FlightAware Approximate
12:35PM -16.5211 126.4099 72° East  Level FlightAware Approximate
12:35PM -16.5117 126.4394 90° East  Level Aus ATC (Calculated)
12:35PM -16.5117 126.4394 72° East  Level Aus ATC (Calculated)
12:37PM -16.4985 126.4811 72° East  Level FlightAware Approximate
12:38PM -16.4858 126.5214 72° East  Level FlightAware Approximate
12:39PM -16.4729 126.5617 72° East  Level FlightAware Approximate
12:39PM -16.4666 126.5816 72° East  Level Aus ATC (Calculated)
12:40PM -16.4601 126.6020 72° East  Level FlightAware Approximate
12:41PM -16.4518 126.6282 72° East  Level FlightAware Approximate
12:42PM -16.4381 126.6713 72° East  Level FlightAware Approximate
12:42PM -16.4454 126.6483 85° East  Level Aus ATC (Calculated)
12:42PM -16.4454 126.6483 72° East  Level Aus ATC (Calculated)
12:43PM -16.4244 126.7143 72° East  Level FlightAware Approximate
12:44PM -16.4180 126.7343 72° East  Level FlightAware Approximate
12:45PM -16.4043 126.7774 72° East  Level FlightAware Approximate
12:46PM -16.3905 126.8204 72° East  Level FlightAware Approximate
12:47PM -16.3768 126.8634 72° East  Level FlightAware Approximate
12:48PM -16.3631 126.9065 72° East  Level FlightAware Approximate
12:49PM -16.3493 126.9495 72° East  Level FlightAware Approximate
12:50PM -16.3355 126.9925 72° East  Level FlightAware Approximate
12:50PM -16.3218 127.0354 72° East  Level Aus ATC (Calculated)
12:52PM -16.2979 127.1099 72° East  Level FlightAware Approximate
12:53PM -16.2841 127.1529 72° East  Level FlightAware Approximate
12:54PM -16.2703 127.1959 72° East  Level FlightAware Approximate
12:55PM -16.2565 127.2388 71° East  Level FlightAware Approximate
12:56PM -16.2427 127.2818 71° East  Level FlightAware Approximate
12:57PM -16.2288 127.3248 71° East  Level FlightAware Approximate
12:58PM -16.2150 127.3677 71° East  Level FlightAware Approximate
12:59PM -16.2011 127.4106 71° East  Level FlightAware Approximate
01:00PM -16.1873 127.4536 71° East  Level FlightAware Approximate
01:01PM -16.1734 127.4965 71° East  Level FlightAware Approximate
01:01PM -16.1702 127.5066 71° East  Level Aus ATC (Calculated)
01:03PM -16.1450 127.5846 71° East  Level FlightAware Approximate
01:04PM -16.1311 127.6275 71° East  Level FlightAware Approximate
01:05PM -16.1172 127.6704 71° East  Level FlightAware Approximate
01:06PM -16.1033 127.7133 71° East  Level FlightAware Approximate
01:07PM -16.0893 127.7562 71° East  Level FlightAware Approximate
01:08PM -16.0754 127.7991 71° East  Level FlightAware Approximate
01:09PM -16.0615 127.8419 71° East  Level FlightAware Approximate
01:10PM -16.0475 127.8848 71° East  Level FlightAware Approximate
01:11PM -16.0336 127.9277 71° East  Level FlightAware Approximate
01:12PM -16.0196 127.9705 71° East  Level FlightAware Approximate
01:13PM -16.0057 128.0134 71° East  Level FlightAware Approximate
01:14PM -15.9917 128.0562 71° East  Level FlightAware Approximate
01:15PM -15.9777 128.0991 71° East  Level FlightAware Approximate
01:16PM -15.9637 128.1419 71° East  Level FlightAware Approximate
01:17PM -15.9497 128.1848 71° East  Level FlightAware Approximate
01:18PM -15.9357 128.2276 71° East  Level FlightAware Approximate
01:19PM -15.9217 128.2704 71° East  Level FlightAware Approximate
01:20PM -15.9076 128.3132 71° East  Level FlightAware Approximate
01:21PM -15.8936 128.3560 71° East  Level FlightAware Approximate
01:22PM -15.8796 128.3988 71° East  Level FlightAware Approximate
01:23PM -15.8655 128.4416 71° East  Level FlightAware Approximate
01:24PM -15.8514 128.4844 71° East  Level FlightAware Approximate
01:25PM -15.8374 128.5272 71° East  Level FlightAware Approximate
01:26PM -15.8233 128.5700 71° East  Level FlightAware Approximate
01:27PM -15.8092 128.6128 73° East  Level Estimated
01:27PM -15.8027 128.6325 71° East  Level Aus ATC (Calculated)
01:28PM -15.7886 128.6753 73° East  Level Estimated
01:29PM -15.7780 128.7074 73° East  Level FlightAware Approximate
01:30PM -15.7781 128.7075 73° East  Level Estimated
01:31PM -15.7781 128.7075 73° East  Level Estimated
01:32PM -15.7781 128.7075 73° East  Level Estimated
01:33PM -15.7781 128.7075 73° East  Level Estimated
01:34PM -15.7781 128.7075 73° East  Level Estimated
01:35PM -15.7781 128.7075 73° East  Level Estimated